Time;durP1;ratioP1;P1;durP2;ratioP2;P2;SDS_P1;SDS_P2;PMS_P1;PMS_P2;Temp;Humidity;BMP_temperature;BMP_pressure;BME280_temperature;BME280_humidity;BME280_pressure;Samples;Min_cycle;Max_cycle;Signal;HPM_P1;HPM_P2
2023/03/13 00:02:04;;;;;;;;;;;;;;;-0.56;65.37;100519.27;107883;1254;67214;-83
2023/03/13 00:04:31;;;;;;;;;;;;;;;-0.54;65.66;100503.37;107843;1254;123889;-82
2023/03/13 00:06:58;;;;;;;;;;;;;;;-0.51;65.72;100492.33;107843;1254;60729;-86
2023/03/13 00:09:26;;;;;;;;;;;;;;;-0.49;65.84;100484.89;107838;1254;123901;-83
2023/03/13 00:12:01;;;;;;;;;;;;;;;-0.48;65.79;100473.95;107526;1254;74712;-83
2023/03/13 00:14:28;;;;;;;;;;;;;;;-0.45;65.82;100465.02;107683;1254;124469;-83
2023/03/13 00:16:56;;;;;;;;;;;;;;;-0.43;65.83;100457.01;107620;1254;71063;-86
2023/03/13 00:19:23;;;;;;;;;;;;;;;-0.43;65.80;100452.21;107403;1254;60078;-86
2023/03/13 00:21:50;;;;;;;;;;;;;;;-0.42;65.97;100452.10;107801;1253;123950;-86
2023/03/13 00:24:17;;;;;;;;;;;;;;;-0.40;66.12;100454.45;107877;1254;73200;-86
2023/03/13 00:27:01;;;;;;;;;;;;;;;-0.40;65.98;100451.55;107604;1253;124520;-86
2023/03/13 00:29:36;;;;;;;;;;;;;;;-0.38;66.07;100447.84;107202;1254;72964;-86
2023/03/13 00:32:24;;;;;;;;;;;;;;;-0.37;66.13;100447.21;107454;1254;61056;-86
2023/03/13 00:34:52;;;;;;;;;;;;;;;-0.37;66.24;100446.67;107485;1256;61330;-87
2023/03/13 00:37:19;;;;;;;;;;;;;;;-0.36;65.96;100447.82;107887;1254;75207;-82
2023/03/13 00:39:55;;;;;;;;;;;;;;;-0.35;66.15;100447.70;107966;1254;124117;-86
2023/03/13 00:42:22;;;;;;;;;;;;;;;-0.32;66.41;100448.58;107515;1254;73144;-86
2023/03/13 00:44:57;;;;;;;;;;;;;;;-0.28;66.45;100452.80;107449;1254;124089;-86
2023/03/13 00:47:31;;;;;;;;;;;;;;;-0.26;66.40;100455.35;107481;1254;60473;-86
2023/03/13 00:50:10;;;;;;;;;;;;;;;-0.27;66.21;100449.77;107630;1254;74684;-86
2023/03/13 00:52:40;;;;;;;;;;;;;;;-0.26;66.24;100446.70;107413;1256;124110;-86
2023/03/13 00:55:18;;;;;;;;;;;;;;;-0.26;66.23;100438.81;107447;1254;72679;-86
2023/03/13 00:57:45;;;;;;;;;;;;;;;-0.24;66.44;100435.45;107504;1254;124298;-82
2023/03/13 01:00:15;;;;;;;;;;;;;;;-0.21;66.62;100432.53;107848;1254;61366;-82
2023/03/13 01:02:44;;;;;;;;;;;;;;;-0.18;66.50;100423.08;107452;1254;124266;-82
2023/03/13 01:05:12;;;;;;;;;;;;;;;-0.16;66.56;100415.58;107575;1254;67117;-82
2023/03/13 01:07:39;;;;;;;;;;;;;;;-0.15;66.61;100407.60;107778;1254;71039;-82
2023/03/13 01:10:07;;;;;;;;;;;;;;;-0.11;66.61;100400.36;107449;1254;124620;-83
2023/03/13 01:12:34;;;;;;;;;;;;;;;-0.11;66.53;100393.46;107606;1254;59988;-82
2023/03/13 01:15:06;;;;;;;;;;;;;;;-0.13;66.46;100386.49;107888;1254;124176;-82
2023/03/13 01:17:33;;;;;;;;;;;;;;;-0.12;66.59;100380.16;107974;1254;67078;-83
2023/03/13 01:20:00;;;;;;;;;;;;;;;-0.12;66.61;100375.48;108003;1254;71061;-82
2023/03/13 01:22:27;;;;;;;;;;;;;;;-0.11;66.70;100368.65;107794;1254;124194;-83
2023/03/13 01:24:54;;;;;;;;;;;;;;;-0.09;66.77;100364.83;107763;1254;60655;-83
2023/03/13 01:27:21;;;;;;;;;;;;;;;-0.07;66.76;100358.40;107607;1257;124767;-82
2023/03/13 01:29:49;;;;;;;;;;;;;;;-0.06;66.84;100352.94;107775;1254;67542;-82
2023/03/13 01:32:16;;;;;;;;;;;;;;;-0.06;66.67;100351.90;107851;1254;72769;-82
2023/03/13 01:35:20;;;;;;;;;;;;;;;-0.08;66.97;100351.11;107794;1255;125093;-87
2023/03/13 01:37:49;;;;;;;;;;;;;;;-0.08;66.95;100345.21;107626;1254;61006;-86
2023/03/13 01:40:17;;;;;;;;;;;;;;;-0.07;67.00;100343.02;107484;1256;124052;-82
2023/03/13 01:42:51;;;;;;;;;;;;;;;-0.07;67.03;100336.80;107565;1258;67072;-82
2023/03/13 01:45:37;;;;;;;;;;;;;;;-0.06;66.93;100336.36;107572;1254;125081;-82
2023/03/13 01:48:05;;;;;;;;;;;;;;;-0.06;67.16;100327.20;107816;1254;61194;-83
2023/03/13 01:50:33;;;;;;;;;;;;;;;-0.07;67.21;100319.04;107544;1254;124402;-83
2023/03/13 01:53:00;;;;;;;;;;;;;;;-0.08;67.24;100319.85;107610;1254;75040;-83
2023/03/13 01:55:27;;;;;;;;;;;;;;;-0.12;67.30;100312.88;107616;1254;65777;-87
2023/03/13 01:57:56;;;;;;;;;;;;;;;-0.17;67.37;100316.52;107634;1257;123871;-83
2023/03/13 02:00:24;;;;;;;;;;;;;;;-0.19;67.63;100316.77;107540;1257;61161;-82
2023/03/13 02:02:52;;;;;;;;;;;;;;;-0.16;67.55;100316.09;107399;1260;124723;-82
2023/03/13 02:05:23;;;;;;;;;;;;;;;-0.11;67.66;100309.65;107696;1255;74418;-82
2023/03/13 02:07:54;;;;;;;;;;;;;;;-0.06;67.89;100306.20;107830;1254;65555;-82
2023/03/13 02:10:28;;;;;;;;;;;;;;;-0.01;67.87;100305.29;107409;1254;123902;-82
2023/03/13 02:12:55;;;;;;;;;;;;;;;0.04;67.85;100304.00;107445;1254;61479;-82
2023/03/13 02:15:24;;;;;;;;;;;;;;;0.05;68.04;100297.71;107412;1254;124321;-83
2023/03/13 02:17:52;;;;;;;;;;;;;;;0.07;67.97;100296.09;108750;1254;73160;-82
2023/03/13 02:20:22;;;;;;;;;;;;;;;0.11;67.95;100304.64;107526;1254;65760;-83
2023/03/13 02:22:56;;;;;;;;;;;;;;;0.18;68.24;100302.61;107399;1254;70999;-83
2023/03/13 02:25:24;;;;;;;;;;;;;;;0.24;68.17;100299.70;107469;1256;60221;-82
2023/03/13 02:27:56;;;;;;;;;;;;;;;0.27;68.14;100301.92;107511;1254;123813;-83
2023/03/13 02:30:23;;;;;;;;;;;;;;;0.32;68.32;100302.71;107589;1256;72110;-82
2023/03/13 02:32:50;;;;;;;;;;;;;;;0.37;68.24;100302.67;107327;1256;124005;-83
2023/03/13 02:35:19;;;;;;;;;;;;;;;0.41;68.40;100300.16;107300;1256;71721;-83
2023/03/13 02:37:53;;;;;;;;;;;;;;;0.45;68.36;100305.59;107364;1255;59745;-83
2023/03/13 02:40:26;;;;;;;;;;;;;;;0.49;68.41;100308.91;107625;1256;137623;-83
2023/03/13 02:42:54;;;;;;;;;;;;;;;0.52;68.43;100313.23;107617;1256;75202;-82
2023/03/13 02:45:21;;;;;;;;;;;;;;;0.53;68.38;100306.90;107279;1255;124322;-83
2023/03/13 02:47:53;;;;;;;;;;;;;;;0.57;68.44;100306.77;107375;1256;72603;-82
2023/03/13 02:50:21;;;;;;;;;;;;;;;0.62;68.55;100308.42;107497;1256;59996;-82
2023/03/13 02:52:49;;;;;;;;;;;;;;;0.65;68.61;100301.55;107122;1255;123714;-83
2023/03/13 02:55:17;;;;;;;;;;;;;;;0.68;68.59;100294.80;107584;1256;74634;-81
2023/03/13 02:57:48;;;;;;;;;;;;;;;0.74;68.58;100298.05;107470;1256;123830;-82
2023/03/13 03:00:16;;;;;;;;;;;;;;;0.77;68.60;100295.98;107353;1256;71278;-82
2023/03/13 03:02:43;;;;;;;;;;;;;;;0.79;68.72;100294.05;107696;1256;124018;-83
2023/03/13 03:05:11;;;;;;;;;;;;;;;0.82;68.68;100292.64;107627;1257;59966;-83
2023/03/13 03:07:39;;;;;;;;;;;;;;;0.87;68.76;100295.14;107942;1258;74826;-83
2023/03/13 03:10:06;;;;;;;;;;;;;;;0.90;68.92;100289.14;108170;1260;124323;-83
2023/03/13 03:12:33;;;;;;;;;;;;;;;0.95;68.86;100280.41;108079;1255;73386;-83
2023/03/13 03:15:03;;;;;;;;;;;;;;;0.99;69.02;100270.94;107669;1256;124619;-83
2023/03/13 03:17:32;;;;;;;;;;;;;;;1.02;68.99;100262.13;107913;1256;60125;-83
2023/03/13 03:19:59;;;;;;;;;;;;;;;1.06;69.00;100262.18;107640;1256;74650;-82
2023/03/13 03:22:26;;;;;;;;;;;;;;;1.09;69.02;100253.91;107661;1256;125197;-82
2023/03/13 03:24:53;;;;;;;;;;;;;;;1.14;69.18;100260.04;107594;1256;72600;-82
2023/03/13 03:27:20;;;;;;;;;;;;;;;1.17;69.06;100252.44;107687;1259;124986;-82
2023/03/13 03:29:47;;;;;;;;;;;;;;;1.24;69.09;100258.66;107821;1256;59513;-82
2023/03/13 03:32:15;;;;;;;;;;;;;;;1.29;69.09;100255.31;107725;1256;72955;-82
2023/03/13 03:34:43;;;;;;;;;;;;;;;1.34;69.11;100241.44;107647;1256;124864;-82
2023/03/13 03:37:10;;;;;;;;;;;;;;;1.41;69.34;100236.05;107442;1255;73247;-82
2023/03/13 03:39:37;;;;;;;;;;;;;;;1.46;69.17;100234.58;107345;1256;125482;-82
2023/03/13 03:42:04;;;;;;;;;;;;;;;1.50;69.24;100230.16;107695;1255;59320;-82
2023/03/13 03:44:31;;;;;;;;;;;;;;;1.54;69.13;100227.63;107509;1256;124595;-83
2023/03/13 03:47:19;;;;;;;;;;;;;;;1.59;69.24;100220.77;107503;1256;65723;-88
2023/03/13 03:49:45;;;;;;;;;;;;;;;1.61;69.16;100217.40;107212;1256;71047;-88
2023/03/13 03:52:14;;;;;;;;;;;;;;;1.63;69.15;100218.21;107135;1256;124617;-88
2023/03/13 03:54:59;;;;;;;;;;;;;;;1.66;69.16;100212.30;107085;1256;60081;-88
2023/03/13 03:57:33;;;;;;;;;;;;;;;1.68;69.18;100204.63;107196;1255;124884;-88
2023/03/13 04:00:21;;;;;;;;;;;;;;;1.70;69.35;100201.27;107364;1255;67047;-88
2023/03/13 04:02:48;;;;;;;;;;;;;;;1.73;69.15;100196.98;107195;1255;124862;-88
2023/03/13 04:05:16;;;;;;;;;;;;;;;1.77;69.12;100197.84;107266;1255;61382;-88
2023/03/13 04:08:00;;;;;;;;;;;;;;;1.78;69.17;100197.70;107676;1255;60888;-87
2023/03/13 04:10:27;;;;;;;;;;;;;;;1.82;69.13;100190.13;107677;1256;124457;-88
2023/03/13 04:13:07;;;;;;;;;;;;;;;1.82;69.37;100192.00;107579;1256;66859;-88
2023/03/13 04:15:42;;;;;;;;;;;;;;;1.83;69.46;100189.84;107527;1256;123819;-88
2023/03/13 04:18:17;;;;;;;;;;;;;;;1.84;69.46;100185.55;107638;1256;59935;-88
2023/03/13 04:21:06;;;;;;;;;;;;;;;1.83;69.46;100177.72;107203;1255;123901;-89
2023/03/13 04:23:33;;;;;;;;;;;;;;;1.84;69.37;100165.65;107275;1256;73204;-88
2023/03/13 04:26:15;;;;;;;;;;;;;;;1.86;69.54;100166.64;107172;1256;66802;-87
2023/03/13 04:28:43;;;;;;;;;;;;;;;1.88;69.56;100162.91;106981;1256;123663;-87
2023/03/13 04:31:10;;;;;;;;;;;;;;;1.87;69.43;100154.40;107126;1255;61205;-87
2023/03/13 04:33:37;;;;;;;;;;;;;;;1.86;69.57;100153.33;107322;1257;123731;-86
2023/03/13 04:36:30;;;;;;;;;;;;;;;1.86;69.54;100144.98;107396;1256;72473;-86
2023/03/13 04:39:30;;;;;;;;;;;;;;;1.84;69.70;100141.07;107100;1256;123861;-87
2023/03/13 04:41:57;;;;;;;;;;;;;;;1.81;69.84;100138.55;107027;1256;71897;-86
2023/03/13 04:44:35;;;;;;;;;;;;;;;1.81;69.68;100135.41;107128;1256;123879;-86
2023/03/13 04:47:17;;;;;;;;;;;;;;;1.81;69.90;100137.48;107314;1257;61362;-87
2023/03/13 04:50:15;;;;;;;;;;;;;;;1.81;70.00;100133.31;107963;1256;73358;-88
2023/03/13 04:52:44;;;;;;;;;;;;;;;1.83;70.20;100133.94;107873;1256;123745;-88
2023/03/13 04:55:11;;;;;;;;;;;;;;;1.84;70.06;100132.09;108276;1256;72533;-88
2023/03/13 04:57:38;;;;;;;;;;;;;;;1.86;70.33;100132.89;107866;1256;124780;-87
2023/03/13 05:00:18;;;;;;;;;;;;;;;1.87;70.33;100126.36;107907;1259;61193;-88
2023/03/13 05:02:47;;;;;;;;;;;;;;;1.87;70.28;100113.91;107827;1256;123869;-88
2023/03/13 05:05:14;;;;;;;;;;;;;;;1.88;70.61;100103.57;108057;1256;65596;-86
2023/03/13 05:07:41;;;;;;;;;;;;;;;1.91;70.62;100099.90;107660;1256;72534;-88
2023/03/13 05:10:14;;;;;;;;;;;;;;;1.92;70.81;100095.48;107474;1256;124123;-87
2023/03/13 05:12:47;;;;;;;;;;;;;;;1.96;70.76;100088.21;107551;1255;62240;-86
2023/03/13 05:15:31;;;;;;;;;;;;;;;1.98;71.05;100083.29;107514;1256;123791;-86
2023/03/13 05:18:07;;;;;;;;;;;;;;;2.02;71.21;100084.17;107609;1255;65730;-86
2023/03/13 05:20:36;;;;;;;;;;;;;;;2.05;71.27;100079.51;107407;1256;123874;-86
2023/03/13 05:23:04;;;;;;;;;;;;;;;2.09;71.50;100078.48;107436;1259;62136;-82
2023/03/13 05:25:54;;;;;;;;;;;;;;;2.10;71.47;100077.67;107385;1255;61272;-86
2023/03/13 05:28:29;;;;;;;;;;;;;;;2.14;71.52;100066.95;107321;1256;123725;-86
2023/03/13 05:31:09;;;;;;;;;;;;;;;2.16;71.68;100059.41;107298;1256;67496;-91
2023/03/13 05:33:36;;;;;;;;;;;;;;;2.18;71.69;100053.29;107317;1257;123265;-82
2023/03/13 05:36:03;;;;;;;;;;;;;;;2.21;71.90;100050.48;108440;1256;59555;-81
2023/03/13 05:38:30;;;;;;;;;;;;;;;2.26;72.18;100047.77;108670;1259;125096;-81
2023/03/13 05:40:57;;;;;;;;;;;;;;;2.31;72.19;100052.48;107543;1257;73348;-82
2023/03/13 05:43:25;;;;;;;;;;;;;;;2.34;72.09;100052.48;107655;1256;65783;-88
2023/03/13 05:45:53;;;;;;;;;;;;;;;2.40;72.46;100059.34;107718;1256;124629;-87
2023/03/13 05:48:20;;;;;;;;;;;;;;;2.45;72.51;100061.27;107549;1256;62376;-86
2023/03/13 05:50:49;;;;;;;;;;;;;;;2.47;72.54;100057.57;107306;1256;125173;-85
2023/03/13 05:53:26;;;;;;;;;;;;;;;2.52;72.79;100060.91;107670;1256;73129;-87
2023/03/13 05:55:53;;;;;;;;;;;;;;;2.57;72.70;100056.98;107513;1259;65888;-86
2023/03/13 05:58:21;;;;;;;;;;;;;;;2.62;72.83;100052.86;107282;1259;125023;-84
2023/03/13 06:00:49;;;;;;;;;;;;;;;2.65;72.93;100052.17;107200;1257;61331;-85
2023/03/13 06:03:17;;;;;;;;;;;;;;;2.69;72.82;100050.79;107202;1256;124633;-84
2023/03/13 06:05:46;;;;;;;;;;;;;;;2.75;73.08;100047.23;107371;1259;73881;-85
2023/03/13 06:08:22;;;;;;;;;;;;;;;2.81;72.93;100048.55;107606;1256;67047;-87
2023/03/13 06:10:49;;;;;;;;;;;;;;;2.86;73.11;100041.65;107251;1256;125008;-86
2023/03/13 06:13:28;;;;;;;;;;;;;;;2.91;73.02;100032.36;107406;1259;61241;-86
2023/03/13 06:16:01;;;;;;;;;;;;;;;2.97;73.25;100022.20;107509;1256;124113;-88
2023/03/13 06:18:28;;;;;;;;;;;;;;;3.05;73.20;100019.25;107668;1256;73431;-81
2023/03/13 06:20:57;;;;;;;;;;;;;;;3.15;73.27;100019.33;107374;1256;124097;-86
2023/03/13 06:23:41;;;;;;;;;;;;;;;3.21;73.24;100008.35;107600;1257;71955;-83
2023/03/13 06:26:08;;;;;;;;;;;;;;;3.28;73.36;100010.70;107547;1256;61231;-84
2023/03/13 06:28:37;;;;;;;;;;;;;;;3.33;73.18;100003.96;107092;1262;123745;-81
2023/03/13 06:31:04;;;;;;;;;;;;;;;3.36;73.20;99999.25;107500;1257;73222;-81
2023/03/13 06:33:32;;;;;;;;;;;;;;;3.38;73.27;100002.79;107482;1256;123805;-84
2023/03/13 06:36:00;;;;;;;;;;;;;;;3.42;73.30;99999.48;107478;1257;72545;-87
2023/03/13 06:38:27;;;;;;;;;;;;;;;3.46;73.39;99996.88;107510;1255;124132;-80
2023/03/13 06:40:54;;;;;;;;;;;;;;;3.50;73.34;99989.75;107698;1257;60073;-80
2023/03/13 06:46:30;;;;;;;;;;;;;;;3.54;73.37;99979.52;107855;1256;124161;-85
2023/03/13 06:48:57;;;;;;;;;;;;;;;3.56;73.52;99978.55;107860;1259;73160;-85
2023/03/13 06:51:37;;;;;;;;;;;;;;;3.57;73.33;99978.80;107672;1256;123808;-85
2023/03/13 06:54:03;;;;;;;;;;;;;;;3.58;73.57;99974.98;107824;1256;60856;-80
2023/03/13 06:56:32;;;;;;;;;;;;;;;3.62;73.64;99975.02;107766;1259;124790;-80
2023/03/13 06:59:03;;;;;;;;;;;;;;;3.65;73.75;99968.70;107439;1256;67325;-80
2023/03/13 07:01:30;;;;;;;;;;;;;;;3.69;73.87;99962.45;107919;1257;71136;-80
2023/03/13 07:03:57;;;;;;;;;;;;;;;3.75;73.83;99958.33;107493;1256;124474;-80
2023/03/13 07:06:25;;;;;;;;;;;;;;;3.83;73.97;99949.60;107571;1259;61919;-80
2023/03/13 07:08:52;;;;;;;;;;;;;;;3.93;74.03;99947.75;107548;1256;125072;-80
2023/03/13 07:11:19;;;;;;;;;;;;;;;4.05;74.01;99945.25;107368;1257;66266;-79
2023/03/13 07:13:46;;;;;;;;;;;;;;;4.16;73.91;99946.53;107537;1256;72978;-85
2023/03/13 07:16:13;;;;;;;;;;;;;;;4.23;73.81;99948.71;107338;1254;124502;-85
2023/03/13 07:19:00;;;;;;;;;;;;;;;4.30;73.89;99946.38;107345;1256;60734;-85
2023/03/13 07:21:27;;;;;;;;;;;;;;;4.42;73.83;99943.84;107240;1257;124258;-80
2023/03/13 07:23:54;;;;;;;;;;;;;;;4.49;73.77;99938.91;107585;1256;65783;-81
2023/03/13 07:26:21;;;;;;;;;;;;;;;4.55;73.80;99942.77;107574;1257;72721;-81
2023/03/13 07:28:48;;;;;;;;;;;;;;;4.63;73.62;99938.36;107236;1256;123623;-81
2023/03/13 07:31:16;;;;;;;;;;;;;;;4.71;73.54;99928.73;107485;1256;60061;-80
2023/03/13 07:33:43;;;;;;;;;;;;;;;4.77;73.54;99922.87;107381;1256;123679;-81
2023/03/13 07:36:11;;;;;;;;;;;;;;;4.86;73.61;99923.52;108884;1257;65442;-81
2023/03/13 07:38:38;;;;;;;;;;;;;;;4.94;73.57;99918.73;108874;1257;123872;-81
2023/03/13 07:41:05;;;;;;;;;;;;;;;4.98;73.35;99908.46;108958;1255;59082;-81
2023/03/13 07:43:32;;;;;;;;;;;;;;;5.00;73.36;99903.13;107961;1257;60533;-81
2023/03/13 07:46:00;;;;;;;;;;;;;;;5.09;73.38;99892.46;107538;1255;124273;-81
2023/03/13 07:48:37;;;;;;;;;;;;;;;5.15;73.09;99886.05;107748;1257;66988;-86
2023/03/13 07:51:17;;;;;;;;;;;;;;;5.18;73.19;99884.95;107163;1258;124105;-85
2023/03/13 07:53:51;;;;;;;;;;;;;;;5.23;73.14;99881.13;107521;1256;61269;-86
2023/03/13 07:56:19;;;;;;;;;;;;;;;5.30;72.99;99876.12;107458;1256;60466;-85
2023/03/13 07:58:57;;;;;;;;;;;;;;;5.35;73.05;99876.27;107524;1255;123704;-86
2023/03/13 08:01:33;;;;;;;;;;;;;;;5.40;72.97;99876.61;107454;1257;67085;-86
2023/03/13 08:04:00;;;;;;;;;;;;;;;5.41;72.85;99873.84;107945;1257;123582;-85
2023/03/13 08:06:29;;;;;;;;;;;;;;;5.39;72.76;99873.80;107915;1257;61199;-85
2023/03/13 08:08:58;;;;;;;;;;;;;;;5.35;72.87;99869.63;107162;1257;124385;-85
2023/03/13 08:11:35;;;;;;;;;;;;;;;5.37;73.01;99866.95;107181;1256;73151;-85
2023/03/13 08:14:05;;;;;;;;;;;;;;;5.42;73.05;99863.98;107187;1254;67203;-85
2023/03/13 08:16:33;;;;;;;;;;;;;;;5.44;72.98;99855.33;107219;1257;124951;-80
2023/03/13 08:19:00;;;;;;;;;;;;;;;5.46;73.06;99854.34;107606;1258;59478;-80
2023/03/13 08:21:28;;;;;;;;;;;;;;;5.49;73.07;99852.50;107346;1257;124356;-80
2023/03/13 08:23:56;;;;;;;;;;;;;;;5.48;73.07;99846.75;107545;1256;73108;-80
2023/03/13 08:27:00;;;;;;;;;;;;;;;5.52;73.03;99843.38;107649;1260;67642;-80
2023/03/13 08:29:30;;;;;;;;;;;;;;;5.60;73.22;99837.38;107682;1257;72192;-80
2023/03/13 08:31:57;;;;;;;;;;;;;;;5.69;73.22;99841.30;107945;1257;61308;-80
2023/03/13 08:34:24;;;;;;;;;;;;;;;5.75;73.15;99828.91;107646;1257;123986;-80
2023/03/13 08:37:01;;;;;;;;;;;;;;;5.80;73.24;99827.67;107912;1255;74758;-80
2023/03/13 08:39:47;;;;;;;;;;;;;;;5.93;73.24;99817.63;107567;1257;123826;-81
2023/03/13 08:42:14;;;;;;;;;;;;;;;6.02;73.17;99809.89;107950;1257;72384;-81
2023/03/13 08:44:41;;;;;;;;;;;;;;;6.06;73.07;99807.55;107465;1262;123782;-80
2023/03/13 08:47:08;;;;;;;;;;;;;;;6.08;73.13;99803.95;107910;1258;61173;-80
2023/03/13 08:49:35;;;;;;;;;;;;;;;6.19;73.18;99803.20;107516;1257;74748;-80
2023/03/13 08:52:05;;;;;;;;;;;;;;;6.27;73.09;99802.04;107346;1260;124165;-85
2023/03/13 08:54:33;;;;;;;;;;;;;;;6.30;72.83;99799.16;107314;1261;72653;-84
2023/03/13 08:57:00;;;;;;;;;;;;;;;6.33;72.79;99795.22;107027;1260;123761;-85
2023/03/13 08:59:37;;;;;;;;;;;;;;;6.36;72.70;99789.39;107507;1257;59612;-84
2023/03/13 09:02:04;;;;;;;;;;;;;;;6.40;72.71;99792.30;107565;1257;74428;-80
2023/03/13 09:04:31;;;;;;;;;;;;;;;6.41;72.58;99786.89;107298;1259;123723;-85
2023/03/13 09:06:58;;;;;;;;;;;;;;;6.42;72.55;99780.67;107186;1257;72467;-85
2023/03/13 09:09:26;;;;;;;;;;;;;;;6.44;72.68;99778.79;107547;1260;123973;-80
2023/03/13 09:11:53;;;;;;;;;;;;;;;6.46;72.58;99775.88;107631;1258;61090;-80
2023/03/13 09:14:20;;;;;;;;;;;;;;;6.48;72.65;99776.63;107782;1258;74591;-85
2023/03/13 09:16:49;;;;;;;;;;;;;;;6.46;72.49;99778.14;107409;1256;123668;-85
2023/03/13 09:19:17;;;;;;;;;;;;;;;6.44;72.60;99769.04;107558;1259;71830;-80
2023/03/13 09:21:51;;;;;;;;;;;;;;;6.43;72.57;99761.17;107063;1260;60075;-85
2023/03/13 09:24:24;;;;;;;;;;;;;;;6.46;72.76;99757.23;107085;1258;61257;-85
2023/03/13 09:26:58;;;;;;;;;;;;;;;6.49;72.69;99757.66;107201;1261;124656;-86
2023/03/13 09:29:38;;;;;;;;;;;;;;;6.50;72.77;99751.07;107464;1257;66936;-84
2023/03/13 09:32:24;;;;;;;;;;;;;;;6.52;72.82;99745.35;107381;1257;72426;-84
2023/03/13 09:35:19;;;;;;;;;;;;;;;6.56;72.88;99739.00;107372;1257;124434;-84
2023/03/13 09:37:48;;;;;;;;;;;;;;;6.59;72.85;99731.07;107236;1259;59983;-84
2023/03/13 09:40:16;;;;;;;;;;;;;;;6.64;72.88;99729.44;107133;1257;269537;-84
2023/03/13 09:42:48;;;;;;;;;;;;;;;6.71;72.97;99726.13;107219;1260;66788;-84
2023/03/13 09:45:36;;;;;;;;;;;;;;;6.83;73.02;99718.39;107185;1262;125353;-84
2023/03/13 09:48:19;;;;;;;;;;;;;;;6.96;73.10;99710.32;107339;1259;61378;-84
2023/03/13 09:51:00;;;;;;;;;;;;;;;7.12;73.14;99709.13;107659;1257;125183;-84
2023/03/13 09:53:38;;;;;;;;;;;;;;;7.27;73.03;99707.16;107603;1257;73506;-84
2023/03/13 09:56:25;;;;;;;;;;;;;;;7.40;72.90;99706.21;107140;1257;67349;-84
2023/03/13 09:58:59;;;;;;;;;;;;;;;7.50;72.84;99699.44;107045;1255;124574;-84
2023/03/13 10:01:47;;;;;;;;;;;;;;;7.61;72.72;99696.52;107416;1257;59921;-84
2023/03/13 10:04:24;;;;;;;;;;;;;;;7.68;72.60;99693.70;107566;1257;124981;-80
2023/03/13 10:06:51;;;;;;;;;;;;;;;7.71;72.46;99681.88;107854;1259;73695;-80
2023/03/13 10:09:36;;;;;;;;;;;;;;;7.75;72.41;99681.06;107448;1264;124481;-80
2023/03/13 10:15:07;;;;;;;;;;;;;;;7.91;72.37;99664.61;107548;1257;123910;-79
2023/03/13 10:17:35;;;;;;;;;;;;;;;7.99;72.30;99656.19;107906;1260;60116;-80
2023/03/13 10:20:11;;;;;;;;;;;;;;;8.01;72.27;99648.55;107773;1255;73065;-80
2023/03/13 10:22:39;;;;;;;;;;;;;;;8.07;72.26;99646.55;107811;1259;124248;-81
2023/03/13 10:25:07;;;;;;;;;;;;;;;8.11;72.23;99647.84;107978;1257;71377;-80
2023/03/13 10:27:44;;;;;;;;;;;;;;;8.13;72.19;99642.45;107782;1256;124206;-80
2023/03/13 10:30:18;;;;;;;;;;;;;;;8.09;72.04;99638.55;107776;1261;61048;-84
2023/03/13 10:32:45;;;;;;;;;;;;;;;8.05;72.08;99638.31;107613;1254;124073;-85
2023/03/13 10:35:19;;;;;;;;;;;;;;;8.02;72.04;99635.98;107804;1255;67088;-80
2023/03/13 10:37:46;;;;;;;;;;;;;;;7.97;72.14;99626.28;107896;1254;72771;-84
2023/03/13 10:40:18;;;;;;;;;;;;;;;7.91;72.16;99621.29;108008;1259;123848;-84
2023/03/13 10:42:45;;;;;;;;;;;;;;;7.89;72.45;99613.21;108002;1254;61302;-85
2023/03/13 10:45:21;;;;;;;;;;;;;;;7.86;72.20;99610.02;107769;1254;123973;-84
2023/03/13 10:47:56;;;;;;;;;;;;;;;7.81;72.42;99605.39;107587;1260;65593;-84
2023/03/13 10:50:23;;;;;;;;;;;;;;;7.77;72.44;99599.73;107707;1254;72703;-85
2023/03/13 10:52:57;;;;;;;;;;;;;;;7.72;72.54;99590.56;107396;1254;123930;-85
2023/03/13 10:55:27;;;;;;;;;;;;;;;7.73;72.81;99583.42;107803;1254;61228;-85
2023/03/13 10:57:58;;;;;;;;;;;;;;;7.77;72.97;99574.08;107360;1254;124300;-85
2023/03/13 11:00:38;;;;;;;;;;;;;;;7.81;73.11;99558.58;107420;1253;65691;-84
2023/03/13 11:03:17;;;;;;;;;;;;;;;7.89;73.19;99554.19;107780;1258;125265;-85
2023/03/13 11:06:00;;;;;;;;;;;;;;;7.92;73.22;99556.51;108039;1254;59926;-85
2023/03/13 11:08:34;;;;;;;;;;;;;;;7.88;73.23;99550.50;107491;1254;61247;-85
2023/03/13 11:11:19;;;;;;;;;;;;;;;7.88;73.30;99546.48;107623;1254;75574;-85
2023/03/13 11:14:07;;;;;;;;;;;;;;;7.90;73.44;99536.56;107540;1254;65658;-85
2023/03/13 11:16:37;;;;;;;;;;;;;;;7.93;73.51;99528.77;107565;1254;124635;-85
2023/03/13 11:22:04;;;;;;;;;;;;;;;8.03;73.86;99512.29;107568;1254;124555;-85
2023/03/13 11:28:02;;;;;;;;;;;;;;;8.13;73.93;99491.14;107612;1254;124373;-84
2023/03/13 11:30:48;;;;;;;;;;;;;;;8.24;74.06;99487.45;107926;1254;72910;-85
2023/03/13 11:33:34;;;;;;;;;;;;;;;8.32;74.09;99476.73;107745;1260;124291;-85
2023/03/13 11:36:06;;;;;;;;;;;;;;;8.41;74.05;99467.74;107627;1257;60846;-85
2023/03/13 11:38:37;;;;;;;;;;;;;;;8.39;73.98;99461.08;107585;1257;73186;-85
2023/03/13 11:41:18;;;;;;;;;;;;;;;8.35;73.93;99463.66;107898;1257;65629;-85
2023/03/13 11:43:54;;;;;;;;;;;;;;;8.28;73.99;99458.33;108021;1256;71148;-85
2023/03/13 11:46:40;;;;;;;;;;;;;;;8.21;73.95;99450.36;107771;1256;124374;-84
2023/03/13 11:49:28;;;;;;;;;;;;;;;8.10;74.08;99442.35;108025;1257;61214;-85
2023/03/13 11:52:21;;;;;;;;;;;;;;;8.05;74.32;99444.71;108047;1257;123931;-85
2023/03/13 11:54:48;;;;;;;;;;;;;;;7.97;74.45;99439.38;107685;1260;67493;-85
2023/03/13 11:57:17;;;;;;;;;;;;;;;7.92;74.63;99429.86;107712;1258;124107;-84
2023/03/13 12:00:10;;;;;;;;;;;;;;;7.89;74.82;99419.87;107641;1255;59882;-88
2023/03/13 12:03:04;;;;;;;;;;;;;;;7.87;74.92;99412.84;107555;1257;124859;-85
2023/03/13 12:05:37;;;;;;;;;;;;;;;7.83;75.05;99401.77;107486;1257;74613;-86
2023/03/13 12:08:05;;;;;;;;;;;;;;;7.84;75.23;99398.65;107549;1258;65088;-86
2023/03/13 12:10:42;;;;;;;;;;;;;;;7.85;75.25;99396.23;107482;1257;124644;-85
2023/03/13 12:13:15;;;;;;;;;;;;;;;7.87;75.51;99388.23;107395;1258;60848;-85
2023/03/13 12:15:44;;;;;;;;;;;;;;;7.87;75.52;99385.60;107270;1256;124560;-86
2023/03/13 12:18:30;;;;;;;;;;;;;;;7.85;75.46;99371.60;107548;1257;73836;-85
2023/03/13 12:21:16;;;;;;;;;;;;;;;7.87;75.70;99360.98;107434;1257;124857;-85
2023/03/13 12:24:02;;;;;;;;;;;;;;;7.92;75.88;99353.18;107773;1257;71398;-81
2023/03/13 12:26:33;;;;;;;;;;;;;;;7.93;75.80;99350.22;107666;1256;61186;-81
2023/03/13 12:29:05;;;;;;;;;;;;;;;7.94;75.99;99343.27;107544;1257;61199;-86
2023/03/13 12:31:33;;;;;;;;;;;;;;;7.96;75.96;99341.52;107532;1256;73834;-81
2023/03/13 12:34:13;;;;;;;;;;;;;;;7.98;76.03;99330.72;107446;1256;125786;-81
2023/03/13 12:37:05;;;;;;;;;;;;;;;8.04;76.16;99316.48;107562;1258;72734;-85
2023/03/13 12:39:48;;;;;;;;;;;;;;;8.14;76.41;99309.09;107216;1256;124381;-86
2023/03/13 12:42:18;;;;;;;;;;;;;;;8.21;76.27;99298.16;107641;1256;61180;-81
2023/03/13 12:44:57;;;;;;;;;;;;;;;8.24;76.35;99302.38;107513;1263;124098;-85
2023/03/13 12:47:31;;;;;;;;;;;;;;;8.26;76.22;99296.98;107776;1256;64606;-85
2023/03/13 12:49:59;;;;;;;;;;;;;;;8.26;76.34;99288.59;107652;1257;71833;-85
2023/03/13 12:52:32;;;;;;;;;;;;;;;8.26;76.32;99291.02;107406;1260;123905;-85
2023/03/13 12:55:12;;;;;;;;;;;;;;;8.22;76.29;99287.67;107587;1257;61446;-85
2023/03/13 12:57:48;;;;;;;;;;;;;;;8.15;76.50;99278.16;107490;1256;124420;-80
2023/03/13 13:00:18;;;;;;;;;;;;;;;8.07;76.77;99266.71;107479;1259;66041;-81
2023/03/13 13:02:45;;;;;;;;;;;;;;;8.05;76.93;99261.45;107348;1256;125151;-80
2023/03/13 13:05:19;;;;;;;;;;;;;;;8.05;77.11;99268.44;107516;1255;61378;-81
2023/03/13 13:07:55;;;;;;;;;;;;;;;8.08;77.41;99265.69;107387;1257;61364;-80
2023/03/13 13:10:25;;;;;;;;;;;;;;;8.11;77.43;99258.37;108909;1256;124517;-81
2023/03/13 13:13:10;;;;;;;;;;;;;;;8.15;77.54;99245.85;107931;1256;66819;-80
2023/03/13 13:15:37;;;;;;;;;;;;;;;8.23;77.84;99235.44;107494;1255;124355;-81